Time;durP1;ratioP1;P1;durP2;ratioP2;P2;SDS_P1;SDS_P2;PMS_P1;PMS_P2;Temp;Humidity;BMP_temperature;BMP_pressure;BME280_temperature;BME280_humidity;BME280_pressure;Samples;Min_cycle;Max_cycle;Signal;HPM_P1;HPM_P2
2023/01/07 00:00:50;;;;;;;11.07;9.05;;;;;;;17.37;58.76;99742.75;5072886;28;20032;-73
2023/01/07 00:03:16;;;;;;;11.90;9.45;;;;;;;17.37;58.97;99737.47;5072620;28;20604;-74
2023/01/07 00:05:42;;;;;;;12.55;9.15;;;;;;;17.37;58.89;99737.47;5072890;28;20032;-73
2023/01/07 00:08:08;;;;;;;12.25;9.93;;;;;;;17.37;59.05;99732.19;5031183;28;1189460;-73
2023/01/07 00:10:34;;;;;;;11.95;8.82;;;;;;;17.36;58.91;99733.13;5073303;28;20418;-74
2023/01/07 00:13:00;;;;;;;11.57;9.30;;;;;;;17.32;58.99;99728.88;5073596;28;20025;-74
2023/01/07 00:15:26;;;;;;;10.18;8.52;;;;;;;17.35;58.78;99734.06;5073458;28;20401;-73
2023/01/07 00:17:51;;;;;;;10.77;7.95;;;;;;;17.33;59.02;99730.59;5073496;28;20090;-74
2023/01/07 00:20:17;;;;;;;12.18;9.15;;;;;;;17.30;58.67;99722.81;5073419;28;20024;-74
2023/01/07 00:22:42;;;;;;;12.40;9.15;;;;;;;17.29;58.80;99716.69;5073303;28;20029;-73
2023/01/07 00:25:08;;;;;;;11.45;8.38;;;;;;;17.29;58.90;99713.19;5072627;28;20025;-74
2023/01/07 00:27:33;;;;;;;9.55;7.38;;;;;;;17.31;58.64;99706.06;5072770;28;20028;-73
2023/01/07 00:29:59;;;;;;;11.15;8.10;;;;;;;17.31;58.93;99706.94;5072775;28;20020;-73
2023/01/07 00:32:46;;;;;;;10.50;7.97;;;;;;;17.28;58.60;99695.63;5071687;28;20513;-74
2023/01/07 00:35:21;;;;;;;9.77;7.50;;;;;;;17.28;58.84;99700.91;5053110;28;20487;-73
2023/01/07 00:37:51;;;;;;;10.95;7.82;;;;;;;17.27;58.64;99693.94;5053085;28;20027;-73
2023/01/07 00:40:16;;;;;;;10.70;7.57;;;;;;;17.26;58.65;99692.22;5052964;28;20025;-74
2023/01/07 00:42:55;;;;;;;11.00;7.88;;;;;;;17.26;58.89;99686.94;5054100;28;20021;-73
2023/01/07 00:45:22;;;;;;;9.20;7.80;;;;;;;17.28;58.73;99693.00;5072966;28;20032;-74
2023/01/07 00:47:47;;;;;;;10.23;7.10;;;;;;;17.27;58.99;99678.09;5073007;28;20042;-73
2023/01/07 00:50:13;;;;;;;9.93;7.32;;;;;;;17.30;59.16;99672.72;5073089;28;20103;-73
2023/01/07 00:52:38;;;;;;;7.97;6.30;;;;;;;17.31;60.75;99679.69;5072889;28;20027;-73
2023/01/07 00:55:04;;;;;;;8.57;6.22;;;;;;;17.32;60.84;99676.13;5072593;28;20027;-74
2023/01/07 00:57:30;;;;;;;9.82;7.18;;;;;;;17.35;60.96;99673.38;5072921;28;20398;-74
2023/01/07 00:59:55;;;;;;;8.30;5.78;;;;;;;17.37;60.67;99673.28;5071489;28;20036;-74
2023/01/07 01:02:21;;;;;;;9.63;6.97;;;;;;;17.37;60.42;99668.88;5072499;28;20024;-74
2023/01/07 01:04:46;;;;;;;8.93;6.25;;;;;;;17.39;60.13;99666.19;5072619;28;20033;-73
2023/01/07 01:07:12;;;;;;;9.93;7.07;;;;;;;17.36;59.88;99650.47;5071482;28;20028;-73
2023/01/07 01:09:37;;;;;;;9.45;6.85;;;;;;;17.37;59.95;99657.47;5072211;28;20568;-74
2023/01/07 01:12:02;;;;;;;9.15;6.25;;;;;;;17.35;59.55;99644.38;5072631;28;20112;-74
2023/01/07 01:14:28;;;;;;;8.65;6.68;;;;;;;17.35;59.75;99644.38;5072304;28;20016;-74
2023/01/07 01:16:53;;;;;;;8.77;6.57;;;;;;;17.33;59.42;99651.47;5072607;28;20021;-73
2023/01/07 01:19:19;;;;;;;8.57;6.45;;;;;;;17.33;59.16;99640.91;5072480;28;20450;-73
2023/01/07 01:21:44;;;;;;;7.45;6.20;;;;;;;17.33;59.27;99640.06;5072547;28;20443;-74
2023/01/07 01:24:10;;;;;;;8.20;5.70;;;;;;;17.32;59.36;99639.22;5070749;28;20430;-73
2023/01/07 01:26:35;;;;;;;11.85;6.85;;;;;;;17.33;59.30;99640.91;5072247;28;20032;-74
2023/01/07 01:29:00;;;;;;;8.52;6.30;;;;;;;17.30;58.87;99635.78;5072402;28;20394;-74
2023/01/07 01:31:26;;;;;;;8.10;6.00;;;;;;;17.31;59.09;99629.59;5072407;28;20505;-73
2023/01/07 01:33:55;;;;;;;9.35;6.43;;;;;;;17.30;58.79;99633.16;5072016;28;20021;-74
2023/01/07 01:36:21;;;;;;;8.55;5.82;;;;;;;17.29;58.87;99634.06;5072256;28;20055;-74
2023/01/07 01:38:46;;;;;;;7.50;5.30;;;;;;;17.30;59.22;99627.88;5071775;28;20048;-73
2023/01/07 01:41:15;;;;;;;7.47;5.90;;;;;;;17.28;59.29;99630.56;5072283;28;20474;-73
2023/01/07 01:43:41;;;;;;;7.85;5.65;;;;;;;17.27;58.76;99628.00;5071794;28;20024;-73
2023/01/07 01:46:28;;;;;;;6.85;5.22;;;;;;;17.27;59.04;99628.00;5072091;28;20056;-73
2023/01/07 01:49:02;;;;;;;8.77;5.88;;;;;;;17.25;58.78;99622.78;5072264;28;20051;-73
2023/01/07 01:51:33;;;;;;;7.60;5.53;;;;;;;17.28;58.56;99627.94;5071635;28;20120;-73
2023/01/07 01:54:00;;;;;;;8.02;5.47;;;;;;;17.26;58.89;99621.00;5071718;28;20021;-74
2023/01/07 01:56:32;;;;;;;7.45;5.93;;;;;;;17.27;58.89;99622.72;5070848;28;20429;-74
2023/01/07 01:59:02;;;;;;;6.70;5.00;;;;;;;17.25;59.04;99606.94;5070670;28;20489;-73
2023/01/07 02:01:27;;;;;;;7.63;5.68;;;;;;;17.24;58.78;99615.78;5071985;28;20115;-74
2023/01/07 02:03:53;;;;;;;7.32;5.40;;;;;;;17.25;58.62;99606.13;5071814;28;20017;-73
2023/01/07 02:06:28;;;;;;;7.90;5.43;;;;;;;17.24;58.90;99609.69;5071595;28;20389;-74
2023/01/07 02:08:54;;;;;;;8.18;5.15;;;;;;;17.25;59.06;99611.38;5071936;28;20121;-73
2023/01/07 02:11:55;;;;;;;7.22;5.45;;;;;;;17.24;58.82;99604.41;5071965;28;20025;-74
2023/01/07 02:14:45;;;;;;;7.75;5.18;;;;;;;17.21;59.18;99599.25;5071848;28;20029;-73
2023/01/07 02:17:13;;;;;;;7.88;5.30;;;;;;;17.22;59.04;99598.31;5071779;28;20440;-73
2023/01/07 02:20:07;;;;;;;7.28;4.90;;;;;;;17.24;58.97;99591.22;5070558;28;20029;-73
2023/01/07 02:22:35;;;;;;;7.28;5.15;;;;;;;17.21;58.89;99583.44;5071576;28;20031;-73
2023/01/07 02:25:12;;;;;;;6.72;4.57;;;;;;;17.22;59.03;99585.13;5071705;28;20038;-73
2023/01/07 02:27:55;;;;;;;7.78;5.03;;;;;;;17.22;58.97;99582.50;5071777;28;20040;-73
2023/01/07 02:30:36;;;;;;;6.57;4.43;;;;;;;17.22;59.15;99585.13;5071856;28;20035;-73
2023/01/07 02:33:17;;;;;;;6.63;4.78;;;;;;;17.21;58.88;99572.88;5071570;28;20039;-74
2023/01/07 02:35:43;;;;;;;6.55;4.57;;;;;;;17.18;58.90;99573.88;5070924;28;20025;-73
2023/01/07 02:38:31;;;;;;;5.90;4.38;;;;;;;17.20;59.09;99571.16;5071566;28;20413;-74
2023/01/07 02:41:27;;;;;;;5.43;3.97;;;;;;;17.21;59.07;99562.31;5071691;28;20032;-74
2023/01/07 02:43:55;;;;;;;6.00;3.80;;;;;;;17.20;58.97;99555.34;5071460;28;20099;-73
2023/01/07 02:47:08;;;;;;;5.85;4.35;;;;;;;17.17;58.95;99557.22;5071544;28;20059;-74
2023/01/07 02:49:34;;;;;;;6.53;4.47;;;;;;;17.19;59.03;99549.19;5010762;28;20446;-73
2023/01/07 02:52:22;;;;;;;5.25;3.90;;;;;;;17.17;59.18;99541.38;5013249;28;20125;-73
2023/01/07 02:55:06;;;;;;;6.55;4.28;;;;;;;17.17;59.12;99541.38;5013349;28;20030;-73
2023/01/07 02:57:38;;;;;;;6.32;4.13;;;;;;;17.14;59.07;99544.13;5013182;28;20099;-73
2023/01/07 03:00:18;;;;;;;7.55;4.47;;;;;;;17.15;58.96;99542.38;5013257;28;20040;-74
2023/01/07 03:03:19;;;;;;;6.07;4.22;;;;;;;17.13;58.97;99539.78;5012937;28;20120;-74
2023/01/07 03:05:57;;;;;;;4.90;3.47;;;;;;;17.15;58.85;99537.94;4993093;28;20037;-75
2023/01/07 03:08:41;;;;;;;5.85;4.30;;;;;;;17.13;59.03;99536.28;4993382;28;20054;-74
2023/01/07 03:11:08;;;;;;;6.18;3.78;;;;;;;17.14;58.66;99525.69;4993683;28;20121;-73
2023/01/07 03:13:47;;;;;;;5.47;3.63;;;;;;;17.16;58.76;99521.19;4999326;28;20450;-73
2023/01/07 03:16:17;;;;;;;6.47;3.53;;;;;;;17.11;58.60;99520.56;5012974;28;20124;-74
2023/01/07 03:18:51;;;;;;;5.03;3.20;;;;;;;17.11;59.03;99517.91;5012668;28;20034;-74
2023/01/07 03:21:20;;;;;;;6.13;4.13;;;;;;;17.12;58.89;99506.44;5012704;28;20077;-74
2023/01/07 03:23:52;;;;;;;5.63;3.60;;;;;;;17.13;58.79;99502.88;5040682;28;20033;-74
2023/01/07 03:26:24;;;;;;;5.30;3.38;;;;;;;17.13;58.86;99497.59;5074605;28;20037;-73
2023/01/07 03:28:51;;;;;;;4.90;3.05;;;;;;;17.16;58.78;99502.72;5074618;28;20052;-74
2023/01/07 03:31:18;;;;;;;6.00;3.70;;;;;;;17.15;58.42;99494.91;5074504;28;20503;-74
2023/01/07 03:34:02;;;;;;;5.50;3.45;;;;;;;17.12;58.81;99490.63;5073952;28;20027;-74
2023/01/07 03:36:32;;;;;;;4.80;3.20;;;;;;;17.12;58.59;99482.72;5074415;28;20020;-74
2023/01/07 03:38:58;;;;;;;5.88;3.22;;;;;;;17.11;58.56;99483.66;5074425;28;20525;-73
2023/01/07 03:44:08;;;;;;;4.68;2.90;;;;;;;17.11;58.59;99466.97;5074608;28;20119;-74
2023/01/07 03:46:35;;;;;;;5.65;3.20;;;;;;;17.09;58.57;99472.28;5074207;28;20115;-73
2023/01/07 03:49:01;;;;;;;5.35;2.83;;;;;;;17.10;58.52;99466.09;5073909;28;20515;-74
2023/01/07 03:51:26;;;;;;;5.40;2.72;;;;;;;17.10;58.97;99466.09;5073549;28;20107;-73
2023/01/07 03:53:52;;;;;;;5.00;3.17;;;;;;;17.10;58.83;99455.53;5073933;28;20012;-73
2023/01/07 03:56:17;;;;;;;4.45;2.97;;;;;;;17.08;58.79;99457.41;5073699;28;20029;-73
2023/01/07 03:58:42;;;;;;;5.28;3.20;;;;;;;17.10;58.75;99450.28;5074098;28;20066;-74
2023/01/07 04:01:08;;;;;;;4.57;3.03;;;;;;;17.07;58.50;99447.78;5072688;28;20020;-74
2023/01/07 04:03:33;;;;;;;4.90;3.20;;;;;;;17.07;58.64;99455.69;5073541;28;20016;-74
2023/01/07 04:05:59;;;;;;;5.20;3.05;;;;;;;17.05;58.35;99457.56;5073747;28;20394;-74
2023/01/07 04:08:24;;;;;;;4.78;2.85;;;;;;;17.08;58.47;99452.13;5073712;28;20037;-73
2023/01/07 04:10:49;;;;;;;4.78;2.72;;;;;;;17.07;58.65;99454.81;5073763;28;20474;-73
2023/01/07 04:13:15;;;;;;;4.80;2.88;;;;;;;17.07;58.73;99455.69;5073667;28;20024;-73
2023/01/07 04:15:41;;;;;;;4.10;2.50;;;;;;;17.07;58.43;99460.97;5073736;28;20028;-74
2023/01/07 04:18:07;;;;;;;4.68;3.05;;;;;;;17.07;58.76;99450.44;5073245;28;20024;-74
2023/01/07 04:20:33;;;;;;;4.25;2.70;;;;;;;17.04;58.85;99440.00;5073594;28;20031;-73
2023/01/07 04:22:58;;;;;;;3.97;2.40;;;;;;;17.03;58.61;99438.28;5073602;28;20386;-73
2023/01/07 04:25:24;;;;;;;4.53;2.78;;;;;;;17.04;58.63;99435.59;5053413;28;20071;-73
2023/01/07 04:27:49;;;;;;;4.20;2.63;;;;;;;17.03;58.59;99433.03;5053369;28;20439;-74
2023/01/07 04:30:15;;;;;;;4.35;2.67;;;;;;;17.01;58.33;99437.50;5053488;28;20017;-74
2023/01/07 04:32:40;;;;;;;4.13;2.60;;;;;;;16.97;58.41;99449.94;5053031;28;20013;-73
2023/01/07 04:35:06;;;;;;;3.85;2.58;;;;;;;16.97;58.43;99444.69;5070556;28;20521;-74
2023/01/07 04:37:31;;;;;;;4.93;2.88;;;;;;;17.00;58.33;99436.63;5073253;28;20031;-74
2023/01/07 04:39:56;;;;;;;4.22;2.50;;;;;;;16.99;58.68;99431.41;5073034;28;20604;-73
2023/01/07 04:42:22;;;;;;;5.15;3.13;;;;;;;17.01;58.40;99437.50;5073150;28;20021;-73
2023/01/07 04:44:47;;;;;;;4.10;2.40;;;;;;;17.01;58.68;99442.75;5072446;28;20024;-74
2023/01/07 04:47:13;;;;;;;4.57;2.47;;;;;;;17.00;58.19;99433.97;5072673;28;20062;-74
2023/01/07 04:49:38;;;;;;;3.55;2.38;;;;;;;16.98;58.51;99429.69;5072959;28;20032;-74
2023/01/07 04:52:04;;;;;;;3.15;2.05;;;;;;;16.98;58.73;99424.44;5072723;28;20028;-74
2023/01/07 04:54:29;;;;;;;4.65;2.60;;;;;;;16.99;58.67;99434.03;5072598;28;20024;-73
2023/01/07 04:56:55;;;;;;;4.00;2.40;;;;;;;17.00;58.41;99422.59;5072833;28;20082;-74
2023/01/07 04:59:21;;;;;;;3.92;2.35;;;;;;;16.97;58.56;99428.00;5072784;28;20033;-73
2023/01/07 05:01:46;;;;;;;3.78;2.35;;;;;;;16.97;58.62;99423.59;5072400;28;20051;-73
2023/01/07 05:04:11;;;;;;;3.78;2.38;;;;;;;16.97;58.46;99415.69;5072676;28;20024;-73
2023/01/07 05:06:37;;;;;;;4.22;2.15;;;;;;;16.98;58.55;99421.78;5072682;28;20053;-73
2023/01/07 05:09:02;;;;;;;3.65;1.90;;;;;;;16.97;58.45;99406.91;5072471;28;20712;-73
2023/01/07 05:11:28;;;;;;;3.35;2.30;;;;;;;16.97;58.35;99409.53;5072342;28;20070;-73
2023/01/07 05:13:53;;;;;;;3.65;2.05;;;;;;;16.94;58.61;99407.91;5072458;28;20020;-73
2023/01/07 05:16:19;;;;;;;3.47;2.10;;;;;;;16.97;58.56;99401.63;5072135;28;20077;-74
2023/01/07 05:18:44;;;;;;;3.40;2.10;;;;;;;16.97;58.22;99402.50;5072644;28;20052;-74
2023/01/07 05:21:11;;;;;;;4.05;2.50;;;;;;;16.97;58.35;99401.63;5072531;28;20414;-73
2023/01/07 05:23:37;;;;;;;4.55;2.45;;;;;;;16.96;58.44;99405.19;5072536;28;20020;-73
2023/01/07 05:26:03;;;;;;;3.65;2.20;;;;;;;16.96;58.36;99405.19;5072501;28;20047;-73
2023/01/07 05:28:28;;;;;;;3.88;2.00;;;;;;;16.92;58.25;99410.59;5072320;28;20371;-73
2023/01/07 05:30:53;;;;;;;3.63;2.00;;;;;;;16.94;58.15;99404.44;5072009;28;20074;-73
2023/01/07 05:33:19;;;;;;;3.10;2.05;;;;;;;16.94;58.24;99407.91;5070931;28;20052;-73
2023/01/07 05:35:47;;;;;;;3.35;1.92;;;;;;;16.94;58.11;99409.69;5072271;28;20546;-73
2023/01/07 05:38:13;;;;;;;11.18;2.20;;;;;;;16.94;58.36;99412.34;5072314;28;20055;-73
2023/01/07 05:40:40;;;;;;;3.45;1.85;;;;;;;16.92;58.09;99410.59;5070955;28;20060;-74
2023/01/07 05:43:06;;;;;;;2.95;1.90;;;;;;;16.95;58.34;99398.22;5072210;28;20082;-73
2023/01/07 05:45:31;;;;;;;3.38;2.10;;;;;;;16.91;58.33;99408.88;5071745;28;20107;-73
2023/01/07 05:47:56;;;;;;;3.33;2.08;;;;;;;16.91;58.41;99411.53;5072153;28;20406;-73
2023/01/07 05:50:22;;;;;;;2.85;1.80;;;;;;;16.91;58.05;99408.88;5071786;28;20027;-73
2023/01/07 05:52:49;;;;;;;3.40;2.08;;;;;;;16.91;58.35;99402.78;5072095;28;20483;-73
2023/01/07 05:55:15;;;;;;;3.67;1.98;;;;;;;16.89;58.20;99394.06;5071983;28;20367;-73
2023/01/07 05:57:40;;;;;;;3.47;2.15;;;;;;;16.93;57.97;99408.81;5071716;28;20063;-73
2023/01/07 06:00:09;;;;;;;3.33;2.00;;;;;;;16.91;58.53;99410.69;5072119;28;20033;-73
2023/01/07 06:02:35;;;;;;;4.05;2.00;;;;;;;16.87;58.21;99406.47;5071920;28;20437;-73
2023/01/07 06:05:00;;;;;;;3.00;2.03;;;;;;;16.88;58.31;99403.78;5072023;28;20115;-73
2023/01/07 06:07:26;;;;;;;3.30;1.85;;;;;;;16.89;58.16;99408.13;5071638;28;20179;-74
2023/01/07 06:09:51;;;;;;;4.15;2.40;;;;;;;16.90;58.08;99412.47;5071977;28;20070;-74
2023/01/07 06:12:17;;;;;;;3.78;2.50;;;;;;;16.88;58.14;99395.00;5071611;28;20025;-74
2023/01/07 06:14:42;;;;;;;3.38;1.98;;;;;;;16.87;58.09;99412.59;5071912;28;20024;-74
2023/01/07 06:17:08;;;;;;;2.85;1.92;;;;;;;16.85;58.24;99419.69;5071754;28;20029;-73
2023/01/07 06:19:33;;;;;;;3.17;2.00;;;;;;;16.86;58.40;99415.31;5071877;28;20012;-73
2023/01/07 06:21:58;;;;;;;4.10;2.38;;;;;;;16.87;58.11;99409.97;5071856;28;20025;-74
2023/01/07 06:24:24;;;;;;;4.35;2.25;;;;;;;16.86;58.14;99410.88;5073198;28;20036;-74
2023/01/07 06:26:49;;;;;;;3.65;2.03;;;;;;;16.85;58.36;99409.16;5075286;28;20024;-73
2023/01/07 06:29:15;;;;;;;4.20;2.30;;;;;;;16.85;58.28;99403.06;5075622;28;20047;-73
2023/01/07 06:31:40;;;;;;;4.25;2.42;;;;;;;16.84;58.34;99412.72;5075767;28;20017;-73
2023/01/07 06:34:06;;;;;;;3.65;2.00;;;;;;;16.86;58.16;99405.59;5075490;28;20429;-73
2023/01/07 06:36:31;;;;;;;4.45;1.90;;;;;;;16.87;58.27;99396.78;5075448;28;20150;-73
2023/01/07 06:38:57;;;;;;;3.08;2.13;;;;;;;16.86;58.22;99405.59;5075463;28;20027;-73
2023/01/07 06:41:22;;;;;;;3.45;2.10;;;;;;;16.86;57.89;99408.22;5073669;28;20056;-74
2023/01/07 06:43:47;;;;;;;3.72;2.10;;;;;;;16.85;58.11;99406.53;5073484;28;20020;-74
2023/01/07 06:46:13;;;;;;;4.50;2.20;;;;;;;16.84;58.46;99407.47;5075322;28;20036;-73
2023/01/07 06:48:38;;;;;;;4.00;1.90;;;;;;;16.84;58.27;99412.72;5075341;28;20028;-73
2023/01/07 06:51:04;;;;;;;3.58;2.13;;;;;;;16.85;58.22;99414.44;5075321;28;20107;-73
2023/01/07 06:53:29;;;;;;;3.83;2.10;;;;;;;16.86;58.24;99408.22;5074784;28;20036;-73
2023/01/07 06:55:55;;;;;;;4.40;2.45;;;;;;;16.86;58.16;99410.03;5074903;28;20052;-74
2023/01/07 06:58:20;;;;;;;3.60;2.10;;;;;;;16.88;58.13;99403.78;5075115;28;20104;-73
2023/01/07 07:00:45;;;;;;;3.58;2.25;;;;;;;16.84;58.40;99401.31;5074836;28;20028;-73
2023/01/07 07:03:11;;;;;;;3.50;2.30;;;;;;;16.85;58.32;99397.78;5074935;28;20024;-74
2023/01/07 07:05:36;;;;;;;3.50;2.10;;;;;;;16.85;58.47;99398.63;5074769;28;20032;-73
2023/01/07 07:08:05;;;;;;;3.83;2.30;;;;;;;16.84;58.34;99390.78;5074816;28;20045;-74
2023/01/07 07:10:30;;;;;;;3.83;2.33;;;;;;;16.84;58.13;99380.22;5074500;28;20385;-74
2023/01/07 07:12:56;;;;;;;4.85;2.13;;;;;;;16.85;58.31;99388.09;5074942;28;20024;-73
2023/01/07 07:15:21;;;;;;;4.07;2.58;;;;;;;16.85;58.24;99389.88;5074746;28;20448;-74
2023/01/07 07:17:46;;;;;;;3.50;2.10;;;;;;;16.84;58.26;99386.38;5074668;28;20332;-74
2023/01/07 07:20:12;;;;;;;4.10;2.40;;;;;;;16.82;58.46;99385.59;5074801;28;20052;-74
2023/01/07 07:22:43;;;;;;;3.50;1.85;;;;;;;16.86;58.29;99384.50;5074791;28;20021;-74
2023/01/07 07:25:09;;;;;;;4.43;2.20;;;;;;;16.82;58.36;99380.31;5074325;28;20032;-73
2023/01/07 07:27:34;;;;;;;4.55;2.55;;;;;;;16.82;58.25;99372.41;5074720;28;20025;-74
2023/01/07 07:29:59;;;;;;;3.75;2.25;;;;;;;16.81;58.27;99365.44;5073354;28;20029;-74
2023/01/07 07:32:27;;;;;;;3.60;2.17;;;;;;;16.81;58.48;99365.44;5074675;28;20060;-74
2023/01/07 07:34:54;;;;;;;3.78;2.50;;;;;;;16.83;58.30;99368.84;5074096;28;20027;-74
2023/01/07 07:37:19;;;;;;;3.70;2.20;;;;;;;16.81;58.30;99370.72;5074423;28;20028;-74
2023/01/07 07:39:45;;;;;;;3.97;2.35;;;;;;;16.82;58.25;99369.78;5073920;28;20021;-75
2023/01/07 07:42:10;;;;;;;4.78;2.42;;;;;;;16.81;58.00;99364.56;5073022;28;20025;-74
2023/01/07 07:44:35;;;;;;;3.80;2.40;;;;;;;16.82;58.35;99361.88;5074124;28;20033;-74
2023/01/07 07:47:01;;;;;;;4.38;2.60;;;;;;;16.82;58.21;99364.50;5074345;28;20035;-73
2023/01/07 07:49:26;;;;;;;4.45;2.53;;;;;;;16.82;58.33;99361.00;5074269;28;20359;-74
2023/01/07 07:51:52;;;;;;;4.38;2.38;;;;;;;16.83;58.27;99368.84;5074093;28;20028;-73
2023/01/07 07:54:17;;;;;;;3.78;2.13;;;;;;;16.81;58.30;99360.19;5073450;28;20020;-74
2023/01/07 07:56:43;;;;;;;4.45;2.70;;;;;;;16.80;58.27;99358.44;5073812;28;20570;-74
2023/01/07 07:59:08;;;;;;;4.65;2.88;;;;;;;16.79;58.45;99367.28;5074072;28;20394;-73
2023/01/07 08:01:34;;;;;;;5.13;3.10;;;;;;;16.83;58.53;99366.22;5072624;28;20020;-73
2023/01/07 08:03:59;;;;;;;4.15;2.60;;;;;;;16.82;58.29;99368.91;5073799;28;20375;-74
2023/01/07 08:06:24;;;;;;;4.32;2.70;;;;;;;16.82;58.54;99366.28;5073673;28;20037;-74
2023/01/07 08:08:50;;;;;;;3.58;2.50;;;;;;;16.79;58.22;99362.00;5073310;28;20048;-73
2023/01/07 08:11:15;;;;;;;3.83;2.40;;;;;;;16.81;58.39;99359.31;5073842;28;20449;-74
2023/01/07 08:13:41;;;;;;;5.05;2.47;;;;;;;16.80;58.58;99361.06;5073762;28;20028;-75
2023/01/07 08:16:06;;;;;;;5.00;2.78;;;;;;;16.79;58.25;99359.38;5073637;28;20028;-74
2023/01/07 08:18:31;;;;;;;4.82;2.75;;;;;;;16.80;58.41;99368.97;5073645;28;20040;-73
2023/01/07 08:20:57;;;;;;;5.32;3.10;;;;;;;16.82;58.67;99377.69;5073590;28;20390;-74
2023/01/07 08:23:23;;;;;;;5.03;2.92;;;;;;;16.78;58.60;99376.09;5073035;28;20505;-73
2023/01/07 08:25:48;;;;;;;4.80;2.60;;;;;;;16.78;58.85;99384.88;5072126;28;20024;-73
2023/01/07 08:28:13;;;;;;;4.18;2.72;;;;;;;16.79;58.44;99369.91;5073414;28;20028;-73
2023/01/07 08:30:39;;;;;;;4.75;2.90;;;;;;;16.80;58.71;99368.16;5073441;28;20038;-73
2023/01/07 08:33:06;;;;;;;4.90;3.08;;;;;;;16.81;58.69;99370.72;5073299;28;20024;-74
2023/01/07 08:35:31;;;;;;;4.72;3.05;;;;;;;16.80;58.43;99368.16;5073271;28;20025;-73
2023/01/07 08:38:05;;;;;;;5.47;3.10;;;;;;;16.80;58.72;99384.78;5072927;28;20024;-74
2023/01/07 08:40:31;;;;;;;4.85;2.92;;;;;;;16.80;58.87;99379.53;5073074;28;20056;-74
2023/01/07 08:43:01;;;;;;;5.15;3.25;;;;;;;16.80;58.64;99379.53;5073183;28;20085;-74
2023/01/07 08:45:28;;;;;;;4.45;2.85;;;;;;;16.80;58.80;99383.94;5073108;28;20122;-74
2023/01/07 08:47:56;;;;;;;4.50;2.85;;;;;;;16.81;58.59;99380.38;5072370;28;20031;-73
2023/01/07 08:50:26;;;;;;;4.57;2.95;;;;;;;16.82;58.72;99393.50;5072731;28;20028;-73
2023/01/07 08:52:51;;;;;;;4.85;3.00;;;;;;;16.82;58.57;99380.31;5071616;28;20024;-73
2023/01/07 08:55:17;;;;;;;5.05;3.30;;;;;;;16.81;58.66;99375.97;5073016;28;20402;-73
2023/01/07 08:57:42;;;;;;;4.75;3.08;;;;;;;16.83;58.63;99376.75;5073029;28;20070;-73
2023/01/07 09:00:08;;;;;;;4.38;3.22;;;;;;;16.83;58.53;99374.13;5072825;28;20034;-74
2023/01/07 09:02:34;;;;;;;5.43;3.30;;;;;;;16.80;58.58;99371.63;5072529;28;20028;-73
2023/01/07 09:04:59;;;;;;;5.25;3.10;;;;;;;16.83;58.53;99368.00;5071342;28;20036;-74
2023/01/07 09:07:24;;;;;;;5.18;3.10;;;;;;;16.81;58.85;99365.44;5072401;28;20067;-74
2023/01/07 09:09:50;;;;;;;5.10;3.40;;;;;;;16.84;58.70;99367.06;5071176;28;20041;-75
2023/01/07 09:12:15;;;;;;;5.80;3.35;;;;;;;16.84;58.70;99375.84;5072560;28;20101;-73
2023/01/07 09:14:41;;;;;;;6.10;2.78;;;;;;;16.85;58.62;99382.81;5072713;28;20025;-74
2023/01/07 09:17:06;;;;;;;5.35;3.38;;;;;;;16.86;58.93;99383.69;5072485;28;20073;-74
2023/01/07 09:19:31;;;;;;;5.05;3.20;;;;;;;16.85;58.81;99388.09;5072618;28;20158;-74
2023/01/07 09:21:57;;;;;;;6.15;3.10;;;;;;;16.86;59.04;99379.25;5072164;28;20043;-74
2023/01/07 09:24:22;;;;;;;6.80;3.85;;;;;;;16.90;58.62;99378.19;5072476;28;20020;-73
2023/01/07 09:26:48;;;;;;;4.85;3.40;;;;;;;16.88;58.87;99377.41;5071153;28;20106;-73
2023/01/07 09:29:13;;;;;;;6.55;3.60;;;;;;;16.89;59.18;99379.13;5072377;28;20052;-74
2023/01/07 09:31:38;;;;;;;6.30;3.65;;;;;;;16.88;59.17;99377.41;5072374;28;20051;-75
2023/01/07 09:34:04;;;;;;;6.45;3.85;;;;;;;16.91;59.19;99386.97;5072326;28;20025;-74
2023/01/07 09:36:30;;;;;;;6.03;4.05;;;;;;;16.91;58.89;99377.25;5071945;28;20444;-74
2023/01/07 09:38:55;;;;;;;7.25;4.05;;;;;;;16.91;58.93;99379.91;5072596;28;20470;-74
2023/01/07 09:41:38;;;;;;;7.45;4.03;;;;;;;16.92;59.28;99381.59;5072545;28;20112;-73
2023/01/07 09:44:31;;;;;;;7.22;4.43;;;;;;;16.92;59.35;99360.50;5072210;28;20414;-73
2023/01/07 09:46:57;;;;;;;6.25;3.95;;;;;;;16.92;59.06;99368.41;5072091;28;20028;-74
2023/01/07 09:49:28;;;;;;;5.65;3.90;;;;;;;16.94;59.18;99364.88;5072340;28;20028;-74
2023/01/07 09:52:17;;;;;;;7.47;4.30;;;;;;;16.91;59.10;99361.44;5071433;28;20017;-74
2023/01/07 09:54:46;;;;;;;6.85;4.30;;;;;;;16.95;59.29;99356.88;4971239;28;20532;-74
2023/01/07 09:57:15;;;;;;;5.68;4.05;;;;;;;16.97;59.20;99359.47;4996957;28;20081;-74
2023/01/07 09:59:40;;;;;;;5.53;3.80;;;;;;;16.98;59.28;99345.34;5013882;28;20512;-74
2023/01/07 10:02:43;;;;;;;5.82;4.10;;;;;;;16.98;59.11;99359.41;5003540;28;20101;-74
2023/01/07 10:05:30;;;;;;;6.82;3.90;;;;;;;16.96;59.29;99363.03;4974797;28;20422;-73
2023/01/07 10:08:11;;;;;;;5.85;3.80;;;;;;;16.97;59.08;99364.72;4975080;28;20061;-73
2023/01/07 10:10:52;;;;;;;6.07;4.50;;;;;;;16.98;58.85;99384.88;4975104;28;20123;-74
2023/01/07 10:13:36;;;;;;;6.90;4.45;;;;;;;17.00;59.00;99354.06;4982641;28;20034;-74
2023/01/07 10:16:16;;;;;;;8.88;4.53;;;;;;;16.99;59.34;99357.59;4994442;28;20069;-75
2023/01/07 10:19:01;;;;;;;8.10;4.20;;;;;;;17.02;59.04;99360.09;4993965;28;20038;-72
2023/01/07 10:21:46;;;;;;;9.68;4.45;;;;;;;17.02;59.20;99353.09;4994319;28;20030;-74
2023/01/07 10:24:24;;;;;;;7.28;4.72;;;;;;;17.02;59.08;99357.47;4994246;28;20034;-74
2023/01/07 10:26:53;;;;;;;8.40;4.38;;;;;;;17.06;58.93;99343.25;4994284;28;20093;-73
2023/01/07 10:29:35;;;;;;;8.52;4.55;;;;;;;17.08;58.98;99351.06;4994319;28;20038;-73
2023/01/07 10:32:13;;;;;;;6.00;4.10;;;;;;;17.06;59.14;99348.53;5029896;28;20026;-74
2023/01/07 10:34:44;;;;;;;7.15;4.10;;;;;;;17.06;59.38;99345.91;5074085;28;20031;-74
2023/01/07 10:37:32;;;;;;;6.28;4.45;;;;;;;17.04;59.28;99339.81;5075628;28;20038;-74
2023/01/07 10:40:07;;;;;;;6.50;3.97;;;;;;;17.09;59.22;99352.81;5074227;28;20032;-74
2023/01/07 10:43:18;;;;;;;6.72;3.78;;;;;;;17.09;59.23;99345.75;5074021;28;20113;-73
2023/01/07 10:46:14;;;;;;;5.88;3.60;;;;;;;17.11;59.00;99356.22;5074175;28;20481;-74
2023/01/07 10:49:00;;;;;;;8.65;4.32;;;;;;;17.12;58.82;99345.63;5075026;28;20116;-74
2023/01/07 10:51:48;;;;;;;7.53;4.05;;;;;;;17.11;59.33;99346.53;5074032;28;20031;-74
2023/01/07 10:54:32;;;;;;;6.47;3.90;;;;;;;17.12;59.29;99350.88;5073886;28;20378;-74
2023/01/07 10:57:16;;;;;;;5.78;3.67;;;;;;;17.18;59.58;99357.63;5069283;28;20056;-74
2023/01/07 10:59:48;;;;;;;6.00;3.92;;;;;;;17.16;59.76;99357.72;5071350;28;20466;-74
2023/01/07 11:02:19;;;;;;;6.72;3.90;;;;;;;17.17;59.70;99356.81;5070647;28;20478;-73
2023/01/07 11:04:44;;;;;;;5.25;3.42;;;;;;;17.22;59.71;99374.16;5074211;28;20052;-75
2023/01/07 11:07:34;;;;;;;6.60;4.00;;;;;;;17.22;59.82;99368.91;5074362;28;20055;-73
2023/01/07 11:10:04;;;;;;;7.70;4.13;;;;;;;17.25;59.71;99348.50;5059741;28;20119;-73
2023/01/07 11:12:49;;;;;;;6.18;3.88;;;;;;;17.24;59.67;99357.34;5065457;28;20498;-74
2023/01/07 11:15:21;;;;;;;6.20;3.63;;;;;;;17.23;59.65;99354.81;5074102;28;20017;-74
2023/01/07 11:18:09;;;;;;;6.38;3.97;;;;;;;17.27;59.34;99351.09;5069257;28;20025;-74
2023/01/07 11:20:56;;;;;;;7.03;4.30;;;;;;;17.28;59.51;99350.16;5071067;28;20438;-74
2023/01/07 11:23:31;;;;;;;5.95;3.55;;;;;;;17.27;59.54;99346.69;5068932;28;20032;-74
2023/01/07 11:26:28;;;;;;;5.90;3.35;;;;;;;17.27;59.44;99351.94;5070314;28;20063;-74
2023/01/07 11:28:57;;;;;;;6.20;3.78;;;;;;;17.31;59.55;99357.94;5070693;28;20127;-74
2023/01/07 11:31:44;;;;;;;5.30;3.50;;;;;;;17.34;59.50;99370.94;5071698;28;20025;-74
2023/01/07 11:34:24;;;;;;;6.00;3.97;;;;;;;17.33;59.33;99356.06;5071644;28;20146;-74
2023/01/07 11:36:50;;;;;;;7.47;4.03;;;;;;;17.35;59.38;99370.06;5070818;28;20024;-74
2023/01/07 11:39:37;;;;;;;7.18;3.58;;;;;;;17.37;59.34;99365.56;5068640;28;20516;-74
2023/01/07 11:45:12;;;;;;;6.63;3.85;;;;;;;17.38;59.63;99359.34;5054797;28;20510;-74
2023/01/07 11:47:44;;;;;;;6.68;3.75;;;;;;;17.41;59.55;99359.22;5056045;28;20025;-74
2023/01/07 11:50:33;;;;;;;7.03;4.07;;;;;;;17.41;59.75;99358.34;5069356;28;20032;-73